Back to Top

Language: 

My Weather Underground Personal Weather Station Historical Data with Graphs...

Delerius Weather Station Historical Data
Daily Summary for January 28, 2017 Units:  English    Metric   Both
« Previous Day
Next Day »
Daily Weekly Monthly Yearly Custom
  High: Low: Average:
Temperature: 45.4 °F 35.5 °F 39 °F
Dew Point: 41.6 °F 33.7 °F 37.4 °F
Humidity: 98 % 86 % 94 %
Wind Speed: 13.0 mph 0.0 mph 3.4 mph
Wind Gust: -999.0 mph - -
Wind:- - South
Pressure: 29.82 in 29.66 in -
Precipitation: 0.11 in    
Historical Graphs
 
 
Tabular Data for January 28, 2017
Time Temperature Dew Point Pressure Wind Wind Speed Wind Gust Humidity Rainfall Rate (Hourly) solar Conditions
00:01 36.2 °F 35.4 °F 29.75 in East 1.0 mph -999.0 mph 97 % 0.01 in 0 W/m2
00:06 36.2 °F 35.4 °F 29.75 in East 1.0 mph -999.0 mph 97 % 0.01 in 0 W/m2
00:11 36.2 °F 35.4 °F 29.75 in East 1.0 mph -999.0 mph 97 % 0.00 in 0 W/m2
00:16 36.2 °F 35.4 °F 29.75 in East 1.0 mph -999.0 mph 97 % 0.00 in 0 W/m2
00:21 36.2 °F 35.4 °F 29.75 in East 1.0 mph -999.0 mph 97 % 0.00 in 0 W/m2
00:26 36.5 °F 35.7 °F 29.75 in SE 2.0 mph -999.0 mph 97 % 0.00 in 0 W/m2
00:31 36.5 °F 35.7 °F 29.75 in SE 2.0 mph -999.0 mph 97 % 0.00 in 0 W/m2
00:36 36.5 °F 35.7 °F 29.75 in SE 2.0 mph -999.0 mph 97 % 0.00 in 0 W/m2
00:41 36.6 °F 35.8 °F 29.74 in SE 1.0 mph -999.0 mph 97 % 0.00 in 0 W/m2
00:46 36.6 °F 35.8 °F 29.74 in SE 1.0 mph -999.0 mph 97 % 0.00 in 0 W/m2
00:51 36.6 °F 35.8 °F 29.74 in SE 1.0 mph -999.0 mph 97 % 0.00 in 0 W/m2
00:56 36.8 °F 36.0 °F 29.74 in ESE 4.0 mph -999.0 mph 97 % 0.00 in 0 W/m2
01:01 36.8 °F 36.0 °F 29.74 in ESE 4.0 mph -999.0 mph 97 % 0.00 in 0 W/m2
01:06 36.8 °F 36.0 °F 29.74 in ESE 4.0 mph -999.0 mph 97 % 0.00 in 0 W/m2
01:11 37.0 °F 36.2 °F 29.74 in ESE 4.0 mph -999.0 mph 97 % 0.00 in 0 W/m2
01:16 37.0 °F 36.2 °F 29.74 in ESE 4.0 mph -999.0 mph 97 % 0.00 in 0 W/m2
01:21 37.0 °F 36.2 °F 29.74 in ESE 4.0 mph -999.0 mph 97 % 0.00 in 0 W/m2
01:26 37.1 °F 36.3 °F 29.74 in ESE 4.0 mph -999.0 mph 97 % 0.00 in 0 W/m2
01:31 37.1 °F 36.3 °F 29.74 in ESE 4.0 mph -999.0 mph 97 % 0.00 in 0 W/m2
01:36 37.1 °F 36.3 °F 29.74 in ESE 4.0 mph -999.0 mph 97 % 0.00 in 0 W/m2
01:41 37.2 °F 36.4 °F 29.73 in SE 4.0 mph -999.0 mph 97 % 0.00 in 0 W/m2
01:46 37.2 °F 36.4 °F 29.73 in SE 4.0 mph -999.0 mph 97 % 0.00 in 0 W/m2
01:51 37.2 °F 36.4 °F 29.73 in SE 4.0 mph -999.0 mph 97 % 0.00 in 0 W/m2
01:56 37.2 °F 36.4 °F 29.73 in SE 4.0 mph -999.0 mph 97 % 0.00 in 0 W/m2
02:01 37.2 °F 36.4 °F 29.73 in SE 4.0 mph -999.0 mph 97 % 0.00 in 0 W/m2
02:06 37.2 °F 36.4 °F 29.73 in SE 4.0 mph -999.0 mph 97 % 0.00 in 0 W/m2
02:11 37.2 °F 36.4 °F 29.73 in SE 3.0 mph -999.0 mph 97 % 0.00 in 0 W/m2
02:16 37.2 °F 36.4 °F 29.73 in SE 3.0 mph -999.0 mph 97 % 0.00 in 0 W/m2
02:21 37.2 °F 36.4 °F 29.73 in SE 3.0 mph -999.0 mph 97 % 0.00 in 0 W/m2
02:26 37.3 °F 36.5 °F 29.72 in SE 4.0 mph -999.0 mph 97 % 0.01 in 0 W/m2
02:31 37.3 °F 36.5 °F 29.72 in SE 4.0 mph -999.0 mph 97 % 0.01 in 0 W/m2
02:36 37.3 °F 36.5 °F 29.72 in SE 4.0 mph -999.0 mph 97 % 0.01 in 0 W/m2
02:41 37.3 °F 36.5 °F 29.72 in ESE 4.0 mph -999.0 mph 97 % 0.01 in 0 W/m2
02:46 37.3 °F 36.5 °F 29.72 in ESE 4.0 mph -999.0 mph 97 % 0.01 in 0 W/m2
02:51 37.3 °F 36.5 °F 29.72 in ESE 4.0 mph -999.0 mph 97 % 0.01 in 0 W/m2
02:56 37.3 °F 36.5 °F 29.72 in ESE 3.0 mph -999.0 mph 97 % 0.01 in 0 W/m2
03:01 37.3 °F 36.5 °F 29.72 in ESE 3.0 mph -999.0 mph 97 % 0.01 in 0 W/m2
03:06 37.3 °F 36.5 °F 29.72 in ESE 3.0 mph -999.0 mph 97 % 0.01 in 0 W/m2
03:11 37.3 °F 36.5 °F 29.72 in SE 2.0 mph -999.0 mph 97 % 0.01 in 0 W/m2
03:16 37.3 °F 36.5 °F 29.72 in SE 2.0 mph -999.0 mph 97 % 0.01 in 0 W/m2
03:21 37.3 °F 36.5 °F 29.72 in SE 2.0 mph -999.0 mph 97 % 0.01 in 0 W/m2
03:26 37.2 °F 36.4 °F 29.71 in ESE 2.0 mph -999.0 mph 97 % 0.00 in 0 W/m2
03:31 37.2 °F 36.4 °F 29.71 in ESE 2.0 mph -999.0 mph 97 % 0.00 in 0 W/m2
03:36 37.2 °F 36.4 °F 29.71 in ESE 2.0 mph -999.0 mph 97 % 0.00 in 0 W/m2
03:41 37.2 °F 36.4 °F 29.71 in ESE 1.0 mph -999.0 mph 97 % 0.00 in 0 W/m2
03:46 37.2 °F 36.4 °F 29.71 in ESE 1.0 mph -999.0 mph 97 % 0.00 in 0 W/m2
03:51 37.2 °F 36.4 °F 29.71 in ESE 1.0 mph -999.0 mph 97 % 0.00 in 0 W/m2
03:56 37.2 °F 36.7 °F 29.70 in Calm   -999.0 mph 98 % 0.01 in 0 W/m2
04:01 37.2 °F 36.7 °F 29.70 in Calm   -999.0 mph 98 % 0.01 in 0 W/m2
04:06 37.2 °F 36.7 °F 29.70 in Calm   -999.0 mph 98 % 0.01 in 0 W/m2
04:11 37.2 °F 36.4 °F 29.70 in Calm   -999.0 mph 97 % 0.01 in 0 W/m2
04:16 37.2 °F 36.4 °F 29.70 in Calm   -999.0 mph 97 % 0.01 in 0 W/m2
04:21 37.2 °F 36.4 °F 29.70 in Calm   -999.0 mph 97 % 0.01 in 0 W/m2
04:26 37.2 °F 36.4 °F 29.70 in East 1.0 mph -999.0 mph 97 % 0.02 in 0 W/m2
04:31 37.2 °F 36.4 °F 29.70 in East 1.0 mph -999.0 mph 97 % 0.02 in 0 W/m2
04:36 37.2 °F 36.4 °F 29.70 in East 1.0 mph -999.0 mph 97 % 0.02 in 0 W/m2
04:41 37.3 °F 36.8 °F 29.70 in East 1.0 mph -999.0 mph 98 % 0.02 in 0 W/m2
04:46 37.3 °F 36.8 °F 29.70 in East 1.0 mph -999.0 mph 98 % 0.02 in 0 W/m2
04:51 37.3 °F 36.8 °F 29.70 in East 1.0 mph -999.0 mph 98 % 0.02 in 0 W/m2
04:56 37.4 °F 36.6 °F 29.69 in ESE 1.0 mph -999.0 mph 97 % 0.02 in 0 W/m2
05:01 37.4 °F 36.6 °F 29.69 in ESE 1.0 mph -999.0 mph 97 % 0.02 in 0 W/m2
05:06 37.4 °F 36.6 °F 29.69 in ESE 1.0 mph -999.0 mph 97 % 0.02 in 0 W/m2
05:11 37.3 °F 36.8 °F 29.69 in ESE 3.0 mph -999.0 mph 98 % 0.04 in 0 W/m2
05:16 37.3 °F 36.8 °F 29.69 in ESE 3.0 mph -999.0 mph 98 % 0.04 in 0 W/m2
05:21 37.3 °F 36.8 °F 29.69 in ESE 3.0 mph -999.0 mph 98 % 0.04 in 0 W/m2
05:26 37.4 °F 36.9 °F 29.69 in ESE 3.0 mph -999.0 mph 98 % 0.04 in 0 W/m2
05:31 37.4 °F 36.9 °F 29.69 in ESE 3.0 mph -999.0 mph 98 % 0.04 in 0 W/m2
05:36 37.4 °F 36.9 °F 29.69 in ESE 3.0 mph -999.0 mph 98 % 0.04 in 0 W/m2
05:41 37.5 °F 37.0 °F 29.69 in ESE 3.0 mph -999.0 mph 98 % 0.04 in 0 W/m2
05:46 37.5 °F 37.0 °F 29.69 in ESE 3.0 mph -999.0 mph 98 % 0.04 in 0 W/m2
05:51 37.5 °F 37.0 °F 29.69 in ESE 3.0 mph -999.0 mph 98 % 0.04 in 0 W/m2
05:56 37.6 °F 37.1 °F 29.67 in ESE 1.0 mph -999.0 mph 98 % 0.03 in 0 W/m2
06:01 37.6 °F 37.1 °F 29.67 in ESE 1.0 mph -999.0 mph 98 % 0.03 in 0 W/m2
06:06 37.6 °F 37.1 °F 29.67 in ESE 1.0 mph -999.0 mph 98 % 0.03 in 0 W/m2
06:11 37.7 °F 37.2 °F 29.67 in ESE 3.0 mph -999.0 mph 98 % 0.02 in 0 W/m2
06:16 37.7 °F 37.2 °F 29.67 in ESE 3.0 mph -999.0 mph 98 % 0.02 in 0 W/m2
06:21 37.7 °F 37.2 °F 29.67 in ESE 3.0 mph -999.0 mph 98 % 0.02 in 0 W/m2
06:26 37.8 °F 37.3 °F 29.67 in ESE 2.0 mph -999.0 mph 98 % 0.02 in 0 W/m2
06:31 37.8 °F 37.3 °F 29.67 in ESE 2.0 mph -999.0 mph 98 % 0.02 in 0 W/m2
06:36 37.8 °F 37.3 °F 29.67 in ESE 2.0 mph -999.0 mph 98 % 0.02 in 0 W/m2
06:41 37.9 °F 37.4 °F 29.67 in ESE 4.0 mph -999.0 mph 98 % 0.01 in 0 W/m2
06:46 37.9 °F 37.4 °F 29.67 in ESE 4.0 mph -999.0 mph 98 % 0.01 in 0 W/m2
06:51 37.9 °F 37.4 °F 29.67 in ESE 4.0 mph -999.0 mph 98 % 0.01 in 0 W/m2
06:56 38.0 °F 37.5 °F 29.66 in SE 4.0 mph -999.0 mph 98 % 0.01 in 0 W/m2
07:01 38.0 °F 37.5 °F 29.66 in SE 4.0 mph -999.0 mph 98 % 0.01 in 0 W/m2
07:06 38.0 °F 37.5 °F 29.66 in SE 4.0 mph -999.0 mph 98 % 0.01 in 0 W/m2
07:11 38.1 °F 37.6 °F 29.66 in SE 3.0 mph -999.0 mph 98 % 0.00 in 0 W/m2
07:16 38.1 °F 37.6 °F 29.66 in SE 3.0 mph -999.0 mph 98 % 0.00 in 0 W/m2
07:21 38.1 °F 37.6 °F 29.66 in SE 3.0 mph -999.0 mph 98 % 0.00 in 0 W/m2
07:26 38.2 °F 37.7 °F 29.66 in SE 4.0 mph -999.0 mph 98 % 0.00 in 0 W/m2
07:31 38.2 °F 37.7 °F 29.66 in SE 4.0 mph -999.0 mph 98 % 0.00 in 0 W/m2
07:36 38.2 °F 37.7 °F 29.66 in SE 4.0 mph -999.0 mph 98 % 0.00 in 0 W/m2
07:41 38.3 °F 37.8 °F 29.66 in SSE 4.0 mph -999.0 mph 98 % 0.00 in 0 W/m2
07:46 38.3 °F 37.8 °F 29.66 in SSE 4.0 mph -999.0 mph 98 % 0.00 in 0 W/m2
07:51 38.3 °F 37.8 °F 29.66 in SSE 4.0 mph -999.0 mph 98 % 0.00 in 0 W/m2
07:56 38.4 °F 37.9 °F 29.66 in SE 2.0 mph -999.0 mph 98 % 0.00 in 0 W/m2
08:01 38.4 °F 37.9 °F 29.66 in SE 2.0 mph -999.0 mph 98 % 0.00 in 0 W/m2
08:06 38.4 °F 37.9 °F 29.66 in SE 2.0 mph -999.0 mph 98 % 0.00 in 0 W/m2
08:11 38.5 °F 38.0 °F 29.66 in SE 1.0 mph -999.0 mph 98 % 0.01 in 1 W/m2
08:16 38.5 °F 38.0 °F 29.66 in SE 1.0 mph -999.0 mph 98 % 0.01 in 1 W/m2
08:21 38.5 °F 38.0 °F 29.66 in SE 1.0 mph -999.0 mph 98 % 0.01 in 1 W/m2
08:26 38.5 °F 38.0 °F 29.66 in SE 1.0 mph -999.0 mph 98 % 0.01 in 5 W/m2
08:31 38.5 °F 38.0 °F 29.66 in SE 1.0 mph -999.0 mph 98 % 0.01 in 5 W/m2
08:36 38.5 °F 38.0 °F 29.66 in SE 1.0 mph -999.0 mph 98 % 0.01 in 5 W/m2
08:41 38.6 °F 38.1 °F 29.66 in SE 3.0 mph -999.0 mph 98 % 0.01 in 11 W/m2
08:46 38.6 °F 38.1 °F 29.66 in SE 3.0 mph -999.0 mph 98 % 0.01 in 11 W/m2
08:51 38.6 °F 38.1 °F 29.66 in SE 3.0 mph -999.0 mph 98 % 0.01 in 11 W/m2
08:56 38.7 °F 38.2 °F 29.66 in SE 3.0 mph -999.0 mph 98 % 0.01 in 28 W/m2
09:01 38.7 °F 38.2 °F 29.66 in SE 3.0 mph -999.0 mph 98 % 0.01 in 28 W/m2
09:06 38.7 °F 38.2 °F 29.66 in SE 3.0 mph -999.0 mph 98 % 0.01 in 28 W/m2
09:11 38.9 °F 38.4 °F 29.66 in SE 2.0 mph -999.0 mph 98 % 0.00 in 31 W/m2
09:16 38.9 °F 38.4 °F 29.66 in SE 2.0 mph -999.0 mph 98 % 0.00 in 31 W/m2
09:21 38.9 °F 38.4 °F 29.66 in SE 2.0 mph -999.0 mph 98 % 0.00 in 31 W/m2
09:26 39.1 °F 38.6 °F 29.66 in Calm   -999.0 mph 98 % 0.00 in 23 W/m2
09:31 39.1 °F 38.6 °F 29.66 in Calm   -999.0 mph 98 % 0.00 in 23 W/m2
09:36 39.1 °F 38.6 °F 29.66 in Calm   -999.0 mph 98 % 0.00 in 23 W/m2
09:41 39.4 °F 38.9 °F 29.66 in SE 1.0 mph -999.0 mph 98 % 0.00 in 28 W/m2
09:46 39.4 °F 38.9 °F 29.66 in SE 1.0 mph -999.0 mph 98 % 0.00 in 28 W/m2
09:51 39.4 °F 38.9 °F 29.66 in SE 1.0 mph -999.0 mph 98 % 0.00 in 28 W/m2
09:56 39.7 °F 39.2 °F 29.66 in SE 3.0 mph -999.0 mph 98 % 0.00 in 34 W/m2
10:01 39.7 °F 39.2 °F 29.66 in SE 3.0 mph -999.0 mph 98 % 0.00 in 34 W/m2
10:06 39.7 °F 39.2 °F 29.66 in SE 3.0 mph -999.0 mph 98 % 0.00 in 34 W/m2
10:11 39.9 °F 39.4 °F 29.66 in ESE 2.0 mph -999.0 mph 98 % 0.00 in 25 W/m2
10:16 39.9 °F 39.4 °F 29.66 in ESE 2.0 mph -999.0 mph 98 % 0.00 in 25 W/m2
10:21 39.9 °F 39.4 °F 29.66 in ESE 2.0 mph -999.0 mph 98 % 0.00 in 25 W/m2
10:26 40.1 °F 39.6 °F 29.67 in Calm   -999.0 mph 98 % 0.01 in 30 W/m2
10:31 40.1 °F 39.6 °F 29.67 in Calm   -999.0 mph 98 % 0.01 in 30 W/m2
10:36 40.1 °F 39.6 °F 29.67 in Calm   -999.0 mph 98 % 0.01 in 30 W/m2
10:41 40.2 °F 39.7 °F 29.67 in Calm   -999.0 mph 98 % 0.01 in 34 W/m2
10:46 40.2 °F 39.7 °F 29.67 in Calm   -999.0 mph 98 % 0.01 in 34 W/m2
10:51 40.2 °F 39.7 °F 29.67 in Calm   -999.0 mph 98 % 0.01 in 34 W/m2
10:56 40.5 °F 40.0 °F 29.67 in Calm   -999.0 mph 98 % 0.02 in 27 W/m2
11:01 40.5 °F 40.0 °F 29.67 in Calm   -999.0 mph 98 % 0.02 in 27 W/m2
11:06 40.5 °F 40.0 °F 29.67 in Calm   -999.0 mph 98 % 0.02 in 27 W/m2
11:11 40.7 °F 40.2 °F 29.67 in Calm   -999.0 mph 98 % 0.02 in 38 W/m2
11:16 40.7 °F 40.2 °F 29.67 in Calm   -999.0 mph 98 % 0.02 in 38 W/m2
11:21 40.7 °F 40.2 °F 29.67 in Calm   -999.0 mph 98 % 0.02 in 38 W/m2
11:26 41.1 °F 40.6 °F 29.68 in West 3.0 mph -999.0 mph 98 % 0.02 in 31 W/m2
11:31 41.1 °F 40.6 °F 29.68 in West 3.0 mph -999.0 mph 98 % 0.02 in 31 W/m2
11:36 41.1 °F 40.6 °F 29.68 in West 3.0 mph -999.0 mph 98 % 0.02 in 31 W/m2
11:41 40.8 °F 40.3 °F 29.68 in West 9.0 mph -999.0 mph 98 % 0.02 in 32 W/m2
11:46 40.8 °F 40.3 °F 29.68 in West 9.0 mph -999.0 mph 98 % 0.02 in 32 W/m2
11:51 40.8 °F 40.3 °F 29.68 in West 9.0 mph -999.0 mph 98 % 0.02 in 32 W/m2
11:56 40.5 °F 40.0 °F 29.68 in West 8.0 mph -999.0 mph 98 % 0.01 in 121 W/m2
12:01 40.5 °F 40.0 °F 29.68 in West 8.0 mph -999.0 mph 98 % 0.01 in 121 W/m2
12:06 40.5 °F 40.0 °F 29.68 in West 8.0 mph -999.0 mph 98 % 0.01 in 121 W/m2
12:11 41.0 °F 40.5 °F 29.68 in West 11.0 mph -999.0 mph 98 % 0.00 in 169 W/m2
12:16 41.0 °F 40.5 °F 29.68 in West 11.0 mph -999.0 mph 98 % 0.00 in 169 W/m2
12:21 41.0 °F 40.5 °F 29.68 in West 11.0 mph -999.0 mph 98 % 0.00 in 169 W/m2
12:26 41.8 °F 40.7 °F 29.69 in WSW 13.0 mph -999.0 mph 96 % 0.00 in 234 W/m2
12:31 41.8 °F 40.7 °F 29.69 in WSW 13.0 mph -999.0 mph 96 % 0.00 in 234 W/m2
12:36 41.8 °F 40.7 °F 29.69 in WSW 13.0 mph -999.0 mph 96 % 0.00 in 234 W/m2
12:41 41.7 °F 40.1 °F 29.70 in West 10.0 mph -999.0 mph 94 % 0.00 in 84 W/m2
12:46 41.7 °F 40.1 °F 29.70 in West 10.0 mph -999.0 mph 94 % 0.00 in 84 W/m2
12:51 41.7 °F 40.1 °F 29.70 in West 10.0 mph -999.0 mph 94 % 0.00 in 84 W/m2
12:56 41.8 °F 39.9 °F 29.69 in West 8.0 mph -999.0 mph 93 % 0.00 in 94 W/m2
13:01 41.8 °F 39.9 °F 29.69 in West 8.0 mph -999.0 mph 93 % 0.00 in 94 W/m2
13:06 41.8 °F 39.9 °F 29.69 in West 8.0 mph -999.0 mph 93 % 0.00 in 94 W/m2
13:11 42.2 °F 40.6 °F 29.70 in West 6.0 mph -999.0 mph 94 % 0.00 in 160 W/m2
13:16 42.2 °F 40.6 °F 29.70 in West 6.0 mph -999.0 mph 94 % 0.00 in 160 W/m2
13:21 42.2 °F 40.6 °F 29.70 in West 6.0 mph -999.0 mph 94 % 0.00 in 160 W/m2
13:26 43.1 °F 40.9 °F 29.70 in West 6.0 mph -999.0 mph 92 % 0.00 in 273 W/m2
13:31 43.1 °F 40.9 °F 29.70 in West 6.0 mph -999.0 mph 92 % 0.00 in 273 W/m2
13:36 43.1 °F 40.9 °F 29.70 in West 6.0 mph -999.0 mph 92 % 0.00 in 273 W/m2
13:41 44.3 °F 41.6 °F 29.70 in WSW 9.0 mph -999.0 mph 90 % 0.00 in 405 W/m2
13:46 44.3 °F 41.6 °F 29.70 in WSW 9.0 mph -999.0 mph 90 % 0.00 in 405 W/m2
13:51 44.3 °F 41.6 °F 29.70 in WSW 9.0 mph -999.0 mph 90 % 0.00 in 405 W/m2
13:56 45.4 °F 41.5 °F 29.70 in WSW 8.0 mph -999.0 mph 86 % 0.00 in 412 W/m2
14:01 45.4 °F 41.5 °F 29.70 in WSW 8.0 mph -999.0 mph 86 % 0.00 in 412 W/m2
14:06 45.4 °F 41.5 °F 29.70 in WSW 8.0 mph -999.0 mph 86 % 0.00 in 412 W/m2
14:11 44.9 °F 41.3 °F 29.71 in WSW 8.0 mph -999.0 mph 87 % 0.00 in 156 W/m2
14:16 44.9 °F 41.3 °F 29.71 in WSW 8.0 mph -999.0 mph 87 % 0.00 in 156 W/m2
14:21 44.9 °F 41.3 °F 29.71 in WSW 8.0 mph -999.0 mph 87 % 0.00 in 156 W/m2
14:26 44.2 °F 40.6 °F 29.71 in SW 7.0 mph -999.0 mph 87 % 0.00 in 97 W/m2
14:31 44.2 °F 40.6 °F 29.71 in SW 7.0 mph -999.0 mph 87 % 0.00 in 97 W/m2
14:36 44.2 °F 40.6 °F 29.71 in SW 7.0 mph -999.0 mph 87 % 0.00 in 97 W/m2
14:41 43.8 °F 40.8 °F 29.72 in WSW 6.0 mph -999.0 mph 89 % 0.00 in 72 W/m2
14:46 43.8 °F 40.8 °F 29.72 in WSW 6.0 mph -999.0 mph 89 % 0.00 in 72 W/m2
14:51 43.8 °F 40.8 °F 29.72 in WSW 6.0 mph -999.0 mph 89 % 0.00 in 72 W/m2
14:56 43.5 °F 40.2 °F 29.73 in WSW 9.0 mph -999.0 mph 88 % 0.00 in 63 W/m2
15:01 43.5 °F 40.2 °F 29.73 in WSW 9.0 mph -999.0 mph 88 % 0.00 in 63 W/m2
15:06 43.5 °F 40.2 °F 29.73 in WSW 9.0 mph -999.0 mph 88 % 0.00 in 63 W/m2
15:11 43.2 °F 39.6 °F 29.73 in WSW 8.0 mph -999.0 mph 87 % 0.00 in 27 W/m2
15:16 43.2 °F 39.6 °F 29.73 in WSW 8.0 mph -999.0 mph 87 % 0.00 in 27 W/m2
15:21 43.2 °F 39.6 °F 29.73 in WSW 8.0 mph -999.0 mph 87 % 0.00 in 27 W/m2
15:26 43.0 °F 39.4 °F 29.73 in WSW 5.0 mph -999.0 mph 87 % 0.00 in 22 W/m2
15:31 43.0 °F 39.4 °F 29.73 in WSW 5.0 mph -999.0 mph 87 % 0.00 in 22 W/m2
15:36 43.0 °F 39.4 °F 29.73 in WSW 5.0 mph -999.0 mph 87 % 0.00 in 22 W/m2
15:41 42.9 °F 39.6 °F 29.74 in West 5.0 mph -999.0 mph 88 % 0.00 in 38 W/m2
15:46 42.9 °F 39.6 °F 29.74 in West 5.0 mph -999.0 mph 88 % 0.00 in 38 W/m2
15:51 42.9 °F 39.6 °F 29.74 in West 5.0 mph -999.0 mph 88 % 0.00 in 38 W/m2
15:56 42.9 °F 39.0 °F 29.74 in West 9.0 mph -999.0 mph 86 % 0.00 in 52 W/m2
16:01 42.9 °F 39.0 °F 29.74 in West 9.0 mph -999.0 mph 86 % 0.00 in 52 W/m2
16:06 42.9 °F 39.0 °F 29.74 in West 9.0 mph -999.0 mph 86 % 0.00 in 52 W/m2
16:11 42.7 °F 38.8 °F 29.74 in West 8.0 mph -999.0 mph 86 % 0.00 in 32 W/m2
16:16 42.7 °F 38.8 °F 29.74 in West 8.0 mph -999.0 mph 86 % 0.00 in 32 W/m2
16:21 42.7 °F 38.8 °F 29.74 in West 8.0 mph -999.0 mph 86 % 0.00 in 32 W/m2
16:26 42.5 °F 38.9 °F 29.75 in West 9.0 mph -999.0 mph 87 % 0.00 in 12 W/m2
16:31 42.5 °F 38.9 °F 29.75 in West 9.0 mph -999.0 mph 87 % 0.00 in 12 W/m2
16:36 42.5 °F 38.9 °F 29.75 in West 9.0 mph -999.0 mph 87 % 0.00 in 12 W/m2
16:41 42.4 °F 38.8 °F 29.75 in West 8.0 mph -999.0 mph 87 % 0.00 in 1 W/m2
16:46 42.4 °F 38.8 °F 29.75 in West 8.0 mph -999.0 mph 87 % 0.00 in 1 W/m2
16:51 42.4 °F 38.8 °F 29.75 in West 8.0 mph -999.0 mph 87 % 0.00 in 1 W/m2
16:56 42.2 °F 38.9 °F 29.76 in West 8.0 mph -999.0 mph 88 % 0.00 in 0 W/m2
17:01 42.2 °F 38.9 °F 29.76 in West 8.0 mph -999.0 mph 88 % 0.00 in 0 W/m2
17:06 42.2 °F 38.9 °F 29.76 in West 8.0 mph -999.0 mph 88 % 0.00 in 0 W/m2
17:11 41.6 °F 38.6 °F 29.77 in West 11.0 mph -999.0 mph 89 % 0.00 in 0 W/m2
17:16 41.6 °F 38.6 °F 29.77 in West 11.0 mph -999.0 mph 89 % 0.00 in 0 W/m2
17:21 41.6 °F 38.6 °F 29.77 in West 11.0 mph -999.0 mph 89 % 0.00 in 0 W/m2
17:26 40.7 °F 38.0 °F 29.77 in WNW 4.0 mph -999.0 mph 90 % 0.00 in 0 W/m2
17:31 40.7 °F 38.0 °F 29.77 in WNW 4.0 mph -999.0 mph 90 % 0.00 in 0 W/m2
17:36 40.7 °F 38.0 °F 29.77 in WNW 4.0 mph -999.0 mph 90 % 0.00 in 0 W/m2
17:41 40.2 °F 37.8 °F 29.77 in WNW 3.0 mph -999.0 mph 91 % 0.00 in 0 W/m2
17:46 40.2 °F 37.8 °F 29.77 in WNW 3.0 mph -999.0 mph 91 % 0.00 in 0 W/m2
17:51 40.2 °F 37.8 °F 29.77 in WNW 3.0 mph -999.0 mph 91 % 0.00 in 0 W/m2
17:56 40.2 °F 37.8 °F 29.78 in WNW 1.0 mph -999.0 mph 91 % 0.00 in 0 W/m2
18:01 40.2 °F 37.8 °F 29.78 in WNW 1.0 mph -999.0 mph 91 % 0.00 in 0 W/m2
18:06 40.2 °F 37.8 °F 29.78 in WNW 1.0 mph -999.0 mph 91 % 0.00 in 0 W/m2
18:11 40.1 °F 37.7 °F 29.78 in Calm   -999.0 mph 91 % 0.00 in 0 W/m2
18:16 40.1 °F 37.7 °F 29.78 in Calm   -999.0 mph 91 % 0.00 in 0 W/m2
18:21 40.1 °F 37.7 °F 29.78 in Calm   -999.0 mph 91 % 0.00 in 0 W/m2
18:26 39.8 °F 37.4 °F 29.79 in West 2.0 mph -999.0 mph 91 % 0.00 in 0 W/m2
18:31 39.8 °F 37.4 °F 29.79 in West 2.0 mph -999.0 mph 91 % 0.00 in 0 W/m2
18:36 39.8 °F 37.4 °F 29.79 in West 2.0 mph -999.0 mph 91 % 0.00 in 0 W/m2
18:41 39.3 °F 36.6 °F 29.79 in Calm   -999.0 mph 90 % 0.00 in 0 W/m2
18:46 39.3 °F 36.6 °F 29.79 in Calm   -999.0 mph 90 % 0.00 in 0 W/m2
18:51 39.3 °F 36.6 °F 29.79 in Calm   -999.0 mph 90 % 0.00 in 0 W/m2
18:56 38.4 °F 35.7 °F 29.79 in Calm   -999.0 mph 90 % 0.00 in 0 W/m2
19:01 38.4 °F 35.7 °F 29.79 in Calm   -999.0 mph 90 % 0.00 in 0 W/m2
19:06 38.4 °F 35.7 °F 29.79 in Calm   -999.0 mph 90 % 0.00 in 0 W/m2
19:11 37.4 °F 35.0 °F 29.80 in Calm   -999.0 mph 91 % 0.00 in 0 W/m2
19:16 37.4 °F 35.0 °F 29.80 in Calm   -999.0 mph 91 % 0.00 in 0 W/m2
19:21 37.4 °F 35.0 °F 29.80 in Calm   -999.0 mph 91 % 0.00 in 0 W/m2
19:26 36.9 °F 34.8 °F 29.80 in Calm   -999.0 mph 92 % 0.00 in 0 W/m2
19:31 36.9 °F 34.8 °F 29.80 in Calm   -999.0 mph 92 % 0.00 in 0 W/m2
19:36 36.9 °F 34.8 °F 29.80 in Calm   -999.0 mph 92 % 0.00 in 0 W/m2
19:41 36.7 °F 34.6 °F 29.80 in Calm   -999.0 mph 92 % 0.00 in 0 W/m2
19:46 36.7 °F 34.6 °F 29.80 in Calm   -999.0 mph 92 % 0.00 in 0 W/m2
19:51 36.7 °F 34.6 °F 29.80 in Calm   -999.0 mph 92 % 0.00 in 0 W/m2
19:56 36.3 °F 34.2 °F 29.81 in Calm   -999.0 mph 92 % 0.00 in 0 W/m2
20:01 36.3 °F 34.2 °F 29.81 in Calm   -999.0 mph 92 % 0.00 in 0 W/m2
20:06 36.3 °F 34.2 °F 29.81 in Calm   -999.0 mph 92 % 0.00 in 0 W/m2
20:11 35.9 °F 34.1 °F 29.81 in Calm   -999.0 mph 93 % 0.00 in 0 W/m2
20:16 35.9 °F 34.1 °F 29.81 in Calm   -999.0 mph 93 % 0.00 in 0 W/m2
20:21 35.9 °F 34.1 °F 29.81 in Calm   -999.0 mph 93 % 0.00 in 0 W/m2
20:26 35.5 °F 33.7 °F 29.81 in SE 1.0 mph -999.0 mph 93 % 0.00 in 0 W/m2
20:31 35.5 °F 33.7 °F 29.81 in SE 1.0 mph -999.0 mph 93 % 0.00 in 0 W/m2
20:36 35.5 °F 33.7 °F 29.81 in SE 1.0 mph -999.0 mph 93 % 0.00 in 0 W/m2
20:41 35.7 °F 33.9 °F 29.81 in SE 2.0 mph -999.0 mph 93 % 0.00 in 0 W/m2
20:46 35.7 °F 33.9 °F 29.81 in SE 2.0 mph -999.0 mph 93 % 0.00 in 0 W/m2
20:51 35.7 °F 33.9 °F 29.81 in SE 2.0 mph -999.0 mph 93 % 0.00 in 0 W/m2
20:56 35.8 °F 34.0 °F 29.81 in Calm   -999.0 mph 93 % 0.00 in 0 W/m2
21:01 35.8 °F 34.0 °F 29.81 in Calm   -999.0 mph 93 % 0.00 in 0 W/m2
21:06 35.8 °F 34.0 °F 29.81 in Calm   -999.0 mph 93 % 0.00 in 0 W/m2
21:11 35.9 °F 34.1 °F 29.81 in SE 1.0 mph -999.0 mph 93 % 0.00 in 0 W/m2
21:16 35.9 °F 34.1 °F 29.81 in SE 1.0 mph -999.0 mph 93 % 0.00 in 0 W/m2
21:21 35.9 °F 34.1 °F 29.81 in SE 1.0 mph -999.0 mph 93 % 0.00 in 0 W/m2
21:26 36.4 °F 34.3 °F 29.81 in South 1.0 mph -999.0 mph 92 % 0.00 in 0 W/m2
21:31 36.4 °F 34.3 °F 29.81 in South 1.0 mph -999.0 mph 92 % 0.00 in 0 W/m2
21:36 36.4 °F 34.3 °F 29.81 in South 1.0 mph -999.0 mph 92 % 0.00 in 0 W/m2
21:41 36.4 °F 34.3 °F 29.81 in Calm   -999.0 mph 92 % 0.00 in 0 W/m2
21:46 36.4 °F 34.3 °F 29.81 in Calm   -999.0 mph 92 % 0.00 in 0 W/m2
21:51 36.4 °F 34.3 °F 29.81 in Calm   -999.0 mph 92 % 0.00 in 0 W/m2
21:56 36.4 °F 34.6 °F 29.81 in South 1.0 mph -999.0 mph 93 % 0.00 in 0 W/m2
22:01 36.4 °F 34.6 °F 29.81 in South 1.0 mph -999.0 mph 93 % 0.00 in 0 W/m2
22:06 36.4 °F 34.6 °F 29.81 in South 1.0 mph -999.0 mph 93 % 0.00 in 0 W/m2
22:11 36.9 °F 34.8 °F 29.81 in SSW 4.0 mph -999.0 mph 92 % 0.00 in 0 W/m2
22:16 36.9 °F 34.8 °F 29.81 in SSW 4.0 mph -999.0 mph 92 % 0.00 in 0 W/m2
22:21 36.9 °F 34.8 °F 29.81 in SSW 4.0 mph -999.0 mph 92 % 0.00 in 0 W/m2
22:26 37.1 °F 34.7 °F 29.81 in SW 4.0 mph -999.0 mph 91 % 0.00 in 0 W/m2
22:31 37.1 °F 34.7 °F 29.81 in SW 4.0 mph -999.0 mph 91 % 0.00 in 0 W/m2
22:36 37.1 °F 34.7 °F 29.81 in SW 4.0 mph -999.0 mph 91 % 0.00 in 0 W/m2
22:41 36.8 °F 34.4 °F 29.82 in SW 3.0 mph -999.0 mph 91 % 0.00 in 0 W/m2
22:46 36.8 °F 34.4 °F 29.82 in SW 3.0 mph -999.0 mph 91 % 0.00 in 0 W/m2
22:51 36.8 °F 34.4 °F 29.82 in SW 3.0 mph -999.0 mph 91 % 0.00 in 0 W/m2
22:56 36.7 °F 34.6 °F 29.82 in SW 3.0 mph -999.0 mph 92 % 0.00 in 0 W/m2
23:01 36.7 °F 34.6 °F 29.82 in SW 3.0 mph -999.0 mph 92 % 0.00 in 0 W/m2
23:06 36.7 °F 34.6 °F 29.82 in SW 3.0 mph -999.0 mph 92 % 0.00 in 0 W/m2
23:11 37.0 °F 34.6 °F 29.82 in SW 2.0 mph -999.0 mph 91 % 0.00 in 0 W/m2
23:16 37.0 °F 34.6 °F 29.82 in SW 2.0 mph -999.0 mph 91 % 0.00 in 0 W/m2
23:21 37.0 °F 34.6 °F 29.82 in SW 2.0 mph -999.0 mph 91 % 0.00 in 0 W/m2
23:26 37.2 °F 34.8 °F 29.82 in WSW 3.0 mph -999.0 mph 91 % 0.00 in 0 W/m2
23:31 37.2 °F 34.8 °F 29.82 in WSW 3.0 mph -999.0 mph 91 % 0.00 in 0 W/m2
23:36 37.2 °F 34.8 °F 29.82 in WSW 3.0 mph -999.0 mph 91 % 0.00 in 0 W/m2
23:41 37.3 °F 34.9 °F 29.82 in SW 1.0 mph -999.0 mph 91 % 0.00 in 0 W/m2
23:46 37.3 °F 34.9 °F 29.82 in SW 1.0 mph -999.0 mph 91 % 0.00 in 0 W/m2
23:51 37.3 °F 34.9 °F 29.82 in SW 1.0 mph -999.0 mph 91 % 0.00 in 0 W/m2
23:56 37.1 °F 34.7 °F 29.82 in SW 1.0 mph -999.0 mph 91 % 0.00 in 0 W/m2
Delerius-Weather
Compliments of Weather Underground - 2.25 mb

Data updates at regular intervals.